Time;durP1;ratioP1;P1;durP2;ratioP2;P2;SDS_P1;SDS_P2;PMS_P1;PMS_P2;Temp;Humidity;BMP_temperature;BMP_pressure;BME280_temperature;BME280_humidity;BME280_pressure;Samples;Min_cycle;Max_cycle;Signal;HPM_P1;HPM_P2
2022/07/11 00:00:09;;;;;;;1.40;0.60;;;14.60;99.90;;;14.27;89.62;97890.91;4897868;29;20035;-40
2022/07/11 00:02:36;;;;;;;1.00;0.63;;;14.60;99.90;;;14.27;89.45;97894.41;4900535;29;20036;-40
2022/07/11 00:05:02;;;;;;;1.55;0.68;;;14.60;99.90;;;14.27;89.85;97886.47;4901170;29;20051;-40
2022/07/11 00:07:28;;;;;;;1.45;0.70;;;14.60;99.90;;;14.28;90.18;97885.53;4901512;29;20212;-41
2022/07/11 00:09:54;;;;;;;1.75;0.75;;;14.50;99.90;;;14.29;90.15;97886.41;4898627;29;20249;-41
2022/07/11 00:12:21;;;;;;;1.80;0.93;;;14.60;99.90;;;14.33;90.59;97886.16;4894657;29;20121;-41
2022/07/11 00:14:48;;;;;;;0.98;0.82;;;14.60;99.90;;;14.41;89.85;97882.31;4898684;29;20481;-41
2022/07/11 00:17:13;;;;;;;1.90;0.90;;;14.60;99.90;;;14.37;90.09;97875.44;4896484;29;20510;-40
2022/07/11 00:19:39;;;;;;;1.88;0.82;;;14.60;99.90;;;14.35;90.98;97874.66;4898948;29;20048;-42
2022/07/11 00:22:06;;;;;;;1.67;1.00;;;14.70;99.90;;;14.31;91.11;97860.66;4901444;29;20035;-41
2022/07/11 00:24:32;;;;;;;1.05;0.90;;;14.60;99.90;;;14.29;90.92;97863.38;4898631;29;20498;-43
2022/07/11 00:26:58;;;;;;;2.00;1.33;;;14.60;99.90;;;14.23;90.79;97861.00;4900538;29;20055;-42
2022/07/11 00:29:23;;;;;;;3.10;1.23;;;14.60;99.90;;;14.13;91.23;97846.41;4895788;29;20111;-41
2022/07/11 00:31:49;;;;;;;2.78;1.20;;;14.50;99.90;;;14.23;91.63;97870.72;4897510;29;20028;-41
2022/07/11 00:34:17;;;;;;;1.88;1.20;;;14.50;99.90;;;14.17;91.82;97868.38;4900448;29;20032;-42
2022/07/11 00:36:43;;;;;;;3.20;1.70;;;14.50;99.90;;;14.12;93.17;97871.19;4898295;29;20308;-42
2022/07/11 00:39:09;;;;;;;1.58;1.10;;;14.40;99.90;;;14.08;93.50;97873.13;4900619;29;20043;-43
2022/07/11 00:41:35;;;;;;;1.35;1.20;;;14.40;99.90;;;14.04;93.90;97876.84;4899257;29;20134;-41
2022/07/11 00:44:01;;;;;;;2.08;1.23;;;14.30;99.90;;;14.02;94.59;97865.44;4901204;29;20040;-41
2022/07/11 00:46:29;;;;;;;1.85;1.17;;;14.30;99.90;;;14.01;95.87;97870.81;4902028;29;20032;-43
2022/07/11 00:48:57;;;;;;;2.33;1.30;;;14.30;99.90;;;13.98;96.37;97874.47;4894162;29;20115;-41
2022/07/11 00:51:23;;;;;;;1.80;1.38;;;14.30;99.90;;;13.91;96.77;97868.56;4899117;29;20401;-42
2022/07/11 00:53:52;;;;;;;1.85;1.33;;;14.20;99.90;;;13.90;96.88;97863.31;4894233;29;20096;-41
2022/07/11 00:56:24;;;;;;;2.00;1.25;;;14.20;99.90;;;13.88;97.50;97860.72;4898336;29;20060;-41
2022/07/11 00:58:50;;;;;;;1.90;1.20;;;14.20;99.90;;;13.86;98.33;97857.28;4897544;29;20516;-41
2022/07/11 01:01:17;;;;;;;1.80;1.48;;;14.10;99.90;;;13.83;98.53;97854.75;4895498;29;20044;-44
2022/07/11 01:03:43;;;;;;;2.17;1.30;;;14.10;99.90;;;13.81;99.19;97846.03;4897711;29;20132;-42
2022/07/11 01:06:09;;;;;;;2.25;1.30;;;14.10;99.90;;;13.77;99.33;97846.22;4898189;29;20096;-41
2022/07/11 01:08:35;;;;;;;2.15;1.50;;;14.00;99.90;;;13.75;99.41;97847.16;4892538;29;20448;-42
2022/07/11 01:11:12;;;;;;;2.20;1.40;;;14.00;99.90;;;13.77;99.18;97849.75;4897560;29;20060;-43
2022/07/11 01:13:40;;;;;;;2.85;1.17;;;14.00;99.90;;;13.78;99.19;97848.78;4896386;29;20126;-44
2022/07/11 01:16:15;;;;;;;2.15;1.40;;;14.10;99.90;;;13.79;99.02;97847.03;4906519;29;20046;-41
2022/07/11 01:18:46;;;;;;;1.95;1.50;;;14.10;99.90;;;13.77;98.89;97847.09;4898976;29;20036;-41
2022/07/11 01:21:21;;;;;;;1.98;1.20;;;14.10;99.90;;;13.75;98.70;97847.16;4902980;29;20072;-42
2022/07/11 01:23:48;;;;;;;2.03;1.58;;;14.00;99.90;;;13.71;98.41;97845.56;4898467;29;20562;-42
2022/07/11 01:26:16;;;;;;;2.40;1.23;;;14.00;99.90;;;13.70;98.25;97842.97;4903898;29;20024;-42
2022/07/11 01:28:42;;;;;;;1.35;1.20;;;14.00;99.90;;;13.67;98.21;97854.56;4897669;29;20388;-42
2022/07/11 01:31:08;;;;;;;1.80;1.20;;;14.00;99.90;;;13.66;98.35;97842.25;4903762;29;20066;-42
2022/07/11 01:33:33;;;;;;;1.30;1.10;;;13.90;99.90;;;13.66;98.42;97846.69;4900673;29;20127;-42
2022/07/11 01:36:02;;;;;;;1.83;1.38;;;14.00;99.90;;;13.54;98.96;97830.34;4907805;29;20062;-41
2022/07/11 01:38:28;;;;;;;1.52;1.30;;;13.90;99.90;;;13.59;99.20;97834.63;4898012;29;20035;-42
2022/07/11 01:40:54;;;;;;;1.95;1.40;;;13.90;99.90;;;13.58;99.72;97835.53;4900068;29;20071;-44
2022/07/11 01:43:20;;;;;;;2.20;1.40;;;13.90;99.90;;;13.53;100.00;97833.06;4892169;29;20062;-41
2022/07/11 01:45:46;;;;;;;1.38;1.17;;;13.80;99.90;;;13.46;100.00;97832.47;4902401;29;20398;-42
2022/07/11 01:48:11;;;;;;;2.63;1.40;;;13.80;99.90;;;13.44;100.00;97838.75;4893406;29;20047;-44
2022/07/11 01:50:37;;;;;;;1.50;1.40;;;13.70;99.90;;;13.41;100.00;97837.09;4897226;29;20047;-42
2022/07/11 01:53:03;;;;;;;2.17;1.65;;;13.70;99.90;;;13.43;100.00;97847.66;4898518;29;20058;-42
2022/07/11 01:55:29;;;;;;;1.85;1.45;;;13.70;99.90;;;13.44;100.00;97842.28;4902519;29;20023;-44
2022/07/11 01:57:54;;;;;;;2.30;1.40;;;13.70;99.90;;;13.43;100.00;97837.91;4897202;29;20043;-44
2022/07/11 02:00:20;;;;;;;1.80;1.40;;;13.70;99.90;;;13.45;100.00;97836.03;4897773;29;20206;-43
2022/07/11 02:02:46;;;;;;;2.03;1.60;;;13.70;99.90;;;13.47;100.00;97834.19;4901276;29;20054;-43
2022/07/11 02:05:11;;;;;;;2.25;1.88;;;13.70;99.90;;;13.45;100.00;97833.41;4898011;29;20036;-43
2022/07/11 02:10:21;;;;;;;2.38;1.70;;;13.80;99.90;;;13.48;100.00;97819.19;4906289;29;20046;-44
2022/07/11 02:12:47;;;;;;;1.40;1.30;;;13.90;99.90;;;13.61;100.00;97838.91;4902387;29;20032;-44
2022/07/11 02:15:13;;;;;;;1.90;1.58;;;13.90;99.90;;;13.62;100.00;97824.75;4903535;29;20067;-43
2022/07/11 02:17:39;;;;;;;4.10;1.65;;;13.90;99.90;;;13.68;100.00;97829.78;4906292;29;20473;-43
2022/07/11 02:20:05;;;;;;;2.28;1.75;;;14.00;99.90;;;13.71;100.00;97832.31;4903928;29;20848;-42
2022/07/11 02:22:31;;;;;;;2.40;1.52;;;14.00;99.90;;;13.74;100.00;97828.66;4899814;29;20504;-41
2022/07/11 02:24:57;;;;;;;1.95;1.60;;;14.00;99.90;;;13.77;100.00;97832.97;4903107;29;20072;-42
2022/07/11 02:27:22;;;;;;;4.47;2.00;;;14.10;99.90;;;13.67;100.00;97809.50;4903252;29;20035;-42
2022/07/11 02:29:48;;;;;;;1.85;1.60;;;14.10;99.90;;;13.74;100.00;97815.41;4899158;29;20139;-42
2022/07/11 02:32:14;;;;;;;1.75;1.65;;;14.10;99.90;;;13.86;100.00;97829.94;4897119;29;20027;-43
2022/07/11 02:34:39;;;;;;;2.28;1.58;;;14.10;99.90;;;13.89;100.00;97827.13;4895304;29;20574;-43
2022/07/11 02:37:05;;;;;;;1.70;1.48;;;14.20;99.90;;;13.89;100.00;97821.81;4903790;29;20040;-44
2022/07/11 02:39:31;;;;;;;1.73;1.42;;;14.20;99.90;;;13.98;100.00;97836.47;4898313;29;20444;-43
2022/07/11 02:41:57;;;;;;;1.80;1.70;;;14.20;99.90;;;14.02;100.00;97833.63;4902746;29;20461;-44
2022/07/11 02:44:22;;;;;;;1.63;1.52;;;14.30;99.90;;;14.06;100.00;97832.56;4903710;29;20044;-45
2022/07/11 02:46:48;;;;;;;2.72;1.67;;;14.30;99.90;;;14.09;100.00;97823.63;4904676;29;20059;-45
2022/07/11 02:49:14;;;;;;;2.47;1.67;;;14.40;99.90;;;14.12;100.00;97820.81;4905371;29;20032;-48
2022/07/11 02:51:40;;;;;;;4.57;1.83;;;14.40;99.90;;;14.14;100.00;97826.94;4898161;29;20036;-45
2022/07/11 02:54:06;;;;;;;1.77;1.67;;;14.40;99.90;;;14.11;100.00;97822.59;4898997;29;20476;-44
2022/07/11 02:56:32;;;;;;;1.88;1.58;;;14.40;99.90;;;14.21;100.00;97830.16;4905749;29;20325;-45
2022/07/11 02:58:58;;;;;;;1.98;1.70;;;14.50;99.90;;;14.19;100.00;97824.06;4900189;29;20039;-48
2022/07/11 03:01:24;;;;;;;2.75;2.20;;;14.50;99.90;;;14.25;100.00;97831.75;4902458;29;20515;-46
2022/07/11 03:03:49;;;;;;;2.97;1.90;;;14.50;99.90;;;14.27;100.00;97827.25;4902107;29;20126;-44
2022/07/11 03:06:15;;;;;;;1.73;1.55;;;14.50;99.90;;;14.27;100.00;97837.84;4902003;29;20432;-45
2022/07/11 03:08:41;;;;;;;1.95;1.75;;;14.60;99.90;;;14.27;100.00;97830.75;4895430;29;20069;-48
2022/07/11 03:11:06;;;;;;;3.13;1.63;;;14.60;99.90;;;14.30;100.00;97833.28;4907509;29;20032;-45
2022/07/11 03:13:32;;;;;;;2.60;1.80;;;14.60;99.90;;;14.25;100.00;97827.31;4902055;29;20488;-44
2022/07/11 03:15:58;;;;;;;2.50;1.80;;;14.60;99.90;;;14.29;100.00;97834.19;4906364;29;20024;-44
2022/07/11 03:18:24;;;;;;;2.20;1.75;;;14.60;99.90;;;14.32;100.00;97838.50;4901657;29;20456;-45
2022/07/11 03:20:49;;;;;;;2.50;1.63;;;14.60;99.90;;;14.32;100.00;97826.09;4903639;29;20036;-47
2022/07/11 03:23:15;;;;;;;3.85;1.95;;;14.60;99.90;;;14.32;100.00;97827.91;4900855;29;20043;-48
2022/07/11 03:25:41;;;;;;;2.00;1.80;;;14.60;99.90;;;14.37;100.00;97832.97;4897443;29;20633;-45
2022/07/11 03:28:06;;;;;;;2.95;2.15;;;14.60;99.90;;;14.39;100.00;97832.00;4901655;29;20036;-48
2022/07/11 03:30:32;;;;;;;4.72;1.83;;;14.70;99.90;;;14.41;100.00;97829.25;4890745;29;21075;-48
2022/07/11 03:32:58;;;;;;;2.00;1.80;;;14.70;99.90;;;14.42;100.00;97836.28;4895993;29;20032;-45
2022/07/11 03:35:41;;;;;;;2.58;2.17;;;14.70;99.90;;;14.42;100.00;97839.78;4889825;29;20580;-43
2022/07/11 03:38:09;;;;;;;2.00;1.83;;;14.70;99.90;;;14.40;100.00;97836.34;4907284;29;20032;-43
2022/07/11 03:40:35;;;;;;;2.78;2.10;;;14.70;99.90;;;14.38;100.00;97824.09;4902548;29;20103;-44
2022/07/11 03:43:01;;;;;;;3.22;2.20;;;14.70;99.90;;;14.44;100.00;97834.41;4904286;29;20031;-44
2022/07/11 03:45:27;;;;;;;2.75;1.75;;;14.70;99.90;;;14.44;100.00;97840.59;4903045;29;20031;-45
2022/07/11 03:47:53;;;;;;;2.92;1.90;;;14.70;99.90;;;14.48;100.00;97841.31;4906895;29;20036;-43
2022/07/11 03:50:19;;;;;;;3.67;2.20;;;14.70;99.90;;;14.48;100.00;97833.34;4908444;29;20043;-44
2022/07/11 03:52:45;;;;;;;3.50;2.00;;;14.80;99.90;;;14.48;100.00;97836.00;4907223;29;20217;-44
2022/07/11 03:55:11;;;;;;;3.00;1.83;;;14.80;99.90;;;14.48;100.00;97831.56;4882970;29;20039;-44
2022/07/11 03:57:36;;;;;;;2.95;1.90;;;14.80;99.90;;;14.55;100.00;97836.59;4898823;29;20040;-43
2022/07/11 04:00:05;;;;;;;3.42;2.20;;;14.80;99.90;;;14.58;100.00;97826.72;4902808;29;20043;-45
2022/07/11 04:02:32;;;;;;;3.58;2.20;;;14.80;99.90;;;14.63;100.00;97835.34;4910096;29;20043;-44
2022/07/11 04:04:58;;;;;;;2.88;2.15;;;14.90;99.90;;;14.65;100.00;97838.78;4904784;29;20032;-44
2022/07/11 04:07:24;;;;;;;2.30;2.10;;;14.90;99.90;;;14.70;100.00;97831.47;4910191;29;20511;-43
2022/07/11 04:09:49;;;;;;;2.83;1.98;;;14.90;99.90;;;14.72;100.00;97834.06;4903098;29;20051;-43
2022/07/11 04:12:17;;;;;;;3.00;1.90;;;15.00;99.90;;;14.75;100.00;97833.03;4906847;29;20028;-43
2022/07/11 04:14:44;;;;;;;2.50;2.30;;;15.00;99.90;;;14.76;100.00;97832.13;4906352;29;20178;-44
2022/07/11 04:17:09;;;;;;;2.67;2.03;;;15.00;99.90;;;14.81;100.00;97838.06;4906525;29;20060;-43
2022/07/11 04:19:35;;;;;;;2.33;2.03;;;15.10;99.90;;;14.78;100.00;97828.44;4904887;29;20036;-46
2022/07/11 04:22:01;;;;;;;3.03;1.92;;;15.10;99.90;;;14.90;100.00;97834.97;4893718;29;20040;-43
2022/07/11 04:24:27;;;;;;;2.53;2.00;;;15.10;99.90;;;14.93;100.00;97841.91;4887501;29;20036;-44
2022/07/11 04:26:53;;;;;;;3.05;2.10;;;15.20;99.90;;;14.94;100.00;97841.00;4882779;29;20787;-44
2022/07/11 04:29:19;;;;;;;2.38;2.17;;;15.20;99.90;;;14.97;100.00;97828.44;4905126;29;20138;-46
2022/07/11 04:31:44;;;;;;;2.30;1.98;;;15.20;99.90;;;15.01;100.00;97835.31;4893664;29;20323;-43
2022/07/11 04:34:10;;;;;;;3.45;2.05;;;15.30;99.90;;;15.06;100.00;97833.31;4901874;29;20523;-45
2022/07/11 04:36:36;;;;;;;2.20;2.00;;;15.30;99.90;;;15.11;100.00;97834.88;4903863;29;20040;-45
2022/07/11 04:39:02;;;;;;;3.38;2.40;;;15.40;99.90;;;15.20;99.82;97839.72;4898932;29;20040;-43
2022/07/11 04:41:27;;;;;;;3.00;2.17;;;15.40;99.90;;;15.26;99.72;97842.97;4899671;29;20092;-43
2022/07/11 04:43:53;;;;;;;3.58;2.45;;;15.50;99.90;;;15.32;99.12;97833.81;4899971;29;20496;-42
2022/07/11 04:46:19;;;;;;;3.67;2.08;;;15.60;99.90;;;15.34;98.36;97834.59;4891470;29;20034;-44
2022/07/11 04:48:45;;;;;;;2.80;1.95;;;15.60;99.90;;;15.44;98.65;97838.53;4896097;29;20111;-43
2022/07/11 04:51:10;;;;;;;2.10;1.90;;;15.70;99.90;;;15.52;98.34;97837.28;4906320;29;20024;-43
2022/07/11 04:53:36;;;;;;;2.15;1.95;;;15.70;99.90;;;15.57;97.81;97833.47;4902520;29;20075;-45
2022/07/11 04:58:36;;;;;;;2.22;2.00;;;15.80;99.90;;;15.75;97.07;97833.50;4957583;28;21070;-40
2022/07/11 05:01:02;;;;;;;4.15;2.60;;;15.90;99.90;;;15.84;96.74;97830.38;4956478;28;20034;-41
2022/07/11 05:03:29;;;;;;;3.88;2.35;;;16.00;99.90;;;15.94;95.67;97834.28;4952998;28;20085;-42
2022/07/11 05:05:55;;;;;;;2.55;2.30;;;16.10;99.90;;;16.05;95.25;97831.06;4961519;28;20037;-43
2022/07/11 05:08:21;;;;;;;4.70;3.13;;;16.20;99.90;;;16.10;93.31;97831.69;4960242;28;20022;-41
2022/07/11 05:10:47;;;;;;;5.05;3.00;;;16.40;99.90;;;16.19;92.48;97833.03;4957812;28;20054;-41
2022/07/11 05:13:13;;;;;;;4.90;2.90;;;16.40;99.90;;;16.26;92.39;97836.19;4954156;28;20080;-42
2022/07/11 05:15:39;;;;;;;3.35;2.70;;;16.50;99.90;;;16.35;92.29;97836.59;4961284;28;20472;-41
2022/07/11 05:18:05;;;;;;;3.25;2.95;;;16.50;99.90;;;16.39;91.76;97843.44;4961006;28;20030;-41
2022/07/11 05:20:31;;;;;;;2.53;2.30;;;16.50;99.90;;;16.42;92.59;97843.28;4953025;28;20027;-42
2022/07/11 05:22:58;;;;;;;4.40;2.22;;;16.60;99.90;;;16.55;92.78;97847.97;4961291;28;20391;-44
2022/07/11 05:25:24;;;;;;;3.08;2.42;;;16.70;99.90;;;16.64;92.12;97846.63;4963225;28;20048;-43
2022/07/11 05:27:50;;;;;;;2.75;2.20;;;16.80;99.90;;;16.68;90.20;97845.50;4965044;28;20061;-41
2022/07/11 05:30:16;;;;;;;3.70;2.55;;;16.90;99.90;;;16.75;90.00;97845.06;4961958;28;20350;-42
2022/07/11 05:32:42;;;;;;;2.88;2.38;;;16.90;99.90;;;16.86;89.78;97848.97;4961722;28;20039;-43
2022/07/11 05:35:08;;;;;;;2.92;2.33;;;17.00;99.90;;;16.98;90.14;97850.97;4955330;28;20054;-42
2022/07/11 05:37:34;;;;;;;4.65;2.50;;;17.20;99.90;;;17.12;88.92;97847.50;4954929;28;20035;-41
2022/07/11 05:40:00;;;;;;;3.95;2.22;;;17.30;99.90;;;17.23;88.01;97850.44;4957070;28;20037;-41
2022/07/11 05:42:28;;;;;;;3.50;1.90;;;17.40;99.90;;;17.27;85.99;97857.31;4956907;28;20061;-41
2022/07/11 05:44:54;;;;;;;2.60;1.92;;;17.50;99.90;;;17.33;86.64;97846.28;4959398;28;22423;-41
2022/07/11 05:47:20;;;;;;;4.57;2.30;;;17.60;99.90;;;17.49;86.48;97872.94;4957787;28;20035;-42
2022/07/11 05:49:45;;;;;;;4.05;1.90;;;17.70;99.90;;;17.63;85.64;97869.47;4961932;28;20038;-41
2022/07/11 05:52:11;;;;;;;3.38;2.20;;;17.80;99.90;;;17.74;84.75;97867.03;4963676;28;20031;-42
2022/07/11 05:54:37;;;;;;;3.58;2.22;;;17.90;99.90;;;17.78;83.67;97873.03;4949695;28;20037;-42
2022/07/11 05:57:03;;;;;;;4.30;2.00;;;18.00;99.90;;;17.85;83.34;97857.56;4957308;28;20057;-43
2022/07/11 05:59:30;;;;;;;5.05;2.20;;;18.00;99.90;;;17.97;82.24;97869.34;4954537;28;20042;-42
2022/07/11 06:01:55;;;;;;;2.50;2.30;;;18.10;99.90;;;17.83;81.07;97860.31;4957440;28;20158;-42
2022/07/11 06:04:21;;;;;;;2.53;2.17;;;18.10;99.90;;;17.78;81.61;97872.19;4956567;28;20039;-45
2022/07/11 06:06:47;;;;;;;3.13;2.40;;;18.00;99.90;;;17.84;81.45;97866.53;4960219;28;20045;-44
2022/07/11 06:09:13;;;;;;;4.78;2.17;;;18.00;99.90;;;17.85;81.91;97873.56;4959152;28;20062;-43
2022/07/11 06:11:40;;;;;;;2.78;1.70;;;18.00;99.90;;;17.90;81.36;97871.50;4954031;28;20035;-42
2022/07/11 06:14:06;;;;;;;2.42;1.90;;;18.10;99.90;;;18.00;81.13;97869.16;4956781;28;20395;-43
2022/07/11 06:16:33;;;;;;;4.25;1.85;;;18.20;99.90;;;18.12;81.56;97869.28;4956573;28;20030;-43
2022/07/11 06:18:59;;;;;;;4.43;2.33;;;18.30;99.90;;;18.19;79.75;97872.44;4959268;28;20031;-42
2022/07/11 06:21:25;;;;;;;2.80;1.92;;;18.40;99.90;;;18.29;78.71;97870.09;4955466;28;20035;-43
2022/07/11 06:23:52;;;;;;;2.75;2.10;;;18.50;99.90;;;18.41;79.62;97874.69;4956233;28;20069;-42
2022/07/11 06:26:18;;;;;;;3.65;2.40;;;18.60;99.90;;;18.43;77.25;97874.56;4962284;28;20219;-42
2022/07/11 06:28:44;;;;;;;3.55;2.55;;;18.70;99.90;;;18.48;76.66;97872.47;4957988;28;20023;-43
2022/07/11 06:31:10;;;;;;;4.13;2.17;;;18.70;99.90;;;18.48;77.32;97875.13;4957025;28;20081;-42
2022/07/11 06:33:36;;;;;;;3.55;2.33;;;18.80;99.90;;;18.45;76.41;97878.88;4953952;28;20062;-43
2022/07/11 06:36:04;;;;;;;2.47;2.00;;;18.70;99.90;;;18.58;76.50;97875.44;4956579;28;20041;-42
2022/07/11 06:38:30;;;;;;;3.45;2.28;;;18.70;99.90;;;18.63;76.74;97876.03;4953289;28;20073;-42
2022/07/11 06:40:56;;;;;;;2.63;2.13;;;18.90;99.90;;;18.64;75.36;97878.56;4957894;28;20051;-43
2022/07/11 06:43:22;;;;;;;2.75;2.30;;;18.90;99.90;;;18.70;75.87;97872.03;4952472;28;20054;-42
2022/07/11 06:45:48;;;;;;;3.17;2.30;;;18.90;99.90;;;18.81;76.67;97874.00;4959114;28;20499;-43
2022/07/11 06:48:14;;;;;;;3.67;2.38;;;19.00;99.90;;;18.88;75.95;97870.88;4956977;28;20063;-42
2022/07/11 06:50:40;;;;;;;3.08;2.78;;;19.10;99.90;;;18.96;74.55;97880.22;4952249;28;20569;-43
2022/07/11 06:53:06;;;;;;;2.50;2.30;;;19.20;99.90;;;19.13;75.41;97879.13;4954153;28;20034;-43
2022/07/11 06:55:33;;;;;;;3.15;2.55;;;19.30;99.90;;;19.33;75.21;97878.72;4951396;28;20022;-40
2022/07/11 06:58:00;;;;;;;4.30;2.53;;;19.50;99.90;;;19.24;72.76;97858.78;4955153;28;20850;-40
2022/07/11 07:00:27;;;;;;;2.92;2.22;;;19.70;99.90;;;19.56;71.23;97879.91;4954143;28;20034;-42
2022/07/11 07:02:56;;;;;;;1.90;1.75;;;19.80;99.90;;;19.79;70.70;97874.84;4960165;28;20026;-40
2022/07/11 07:05:23;;;;;;;2.83;1.90;;;19.90;99.90;;;19.89;70.14;97877.78;4956226;28;20038;-43
2022/07/11 07:07:51;;;;;;;3.47;2.55;;;20.00;99.90;;;19.95;69.38;97877.38;4950518;28;20030;-43
2022/07/11 07:10:16;;;;;;;3.72;2.10;;;20.10;99.90;;;19.99;69.28;97879.75;4952017;28;20034;-44
2022/07/11 07:12:44;;;;;;;4.88;2.15;;;20.20;99.90;;;19.98;70.32;97875.34;4957966;28;20035;-43
2022/07/11 07:15:10;;;;;;;4.20;1.77;;;20.20;99.90;;;20.26;69.71;97873.47;4956198;28;20117;-42
2022/07/11 07:17:36;;;;;;;2.60;1.85;;;20.30;99.90;;;20.46;68.33;97876.56;4958291;28;20097;-42
2022/07/11 07:20:04;;;;;;;3.28;1.77;;;20.50;99.90;;;20.40;66.44;97876.06;4957123;28;20039;-42
2022/07/11 07:22:30;;;;;;;2.53;1.80;;;20.70;99.90;;;20.61;66.59;97875.53;4953564;28;20031;-42
2022/07/11 07:24:57;;;;;;;2.45;1.90;;;20.70;99.90;;;20.59;65.73;97872.06;4954781;28;20455;-42
2022/07/11 07:27:22;;;;;;;2.05;1.80;;;20.80;99.90;;;20.72;65.33;97866.75;4954580;28;20050;-42
2022/07/11 07:29:48;;;;;;;2.25;1.33;;;20.80;99.90;;;20.83;61.32;97877.53;4953639;28;20486;-42
2022/07/11 07:32:14;;;;;;;3.55;1.40;;;21.00;99.90;;;20.82;60.62;97866.94;4952582;28;20084;-42
2022/07/11 07:34:40;;;;;;;1.05;1.00;;;21.00;99.90;;;21.02;61.16;97870.88;4954404;28;20047;-42
2022/07/11 07:37:06;;;;;;;2.03;1.40;;;21.00;99.90;;;21.13;62.54;97871.81;4952545;28;23854;-42
2022/07/11 07:39:31;;;;;;;1.85;1.45;;;21.20;99.90;;;20.94;60.21;97868.72;4953383;28;20042;-42
2022/07/11 07:41:57;;;;;;;2.28;1.20;;;21.20;99.90;;;20.87;59.61;97876.38;4956004;28;20124;-41
2022/07/11 07:44:23;;;;;;;1.58;1.05;;;21.10;99.90;;;21.03;60.10;97864.53;4956299;28;20058;-44
2022/07/11 07:46:49;;;;;;;2.75;1.30;;;21.20;99.90;;;21.09;61.73;97864.97;4955862;28;20065;-43
2022/07/11 07:49:14;;;;;;;1.50;1.30;;;21.20;99.90;;;21.27;60.56;97862.75;4959794;28;20058;-42
2022/07/11 07:51:40;;;;;;;2.58;1.33;;;21.50;99.90;;;21.27;58.73;97872.66;4953851;28;20035;-42
2022/07/11 07:54:06;;;;;;;1.63;1.25;;;21.50;99.90;;;21.21;59.15;97859.66;4957913;28;20034;-42
2022/07/11 07:56:32;;;;;;;2.15;1.40;;;21.60;99.70;;;21.15;59.49;97860.97;4943110;28;20349;-42
2022/07/11 07:58:58;;;;;;;2.95;1.15;;;21.50;99.80;;;21.28;60.06;97853.75;4958228;28;20038;-42
2022/07/11 08:01:35;;;;;;;6.15;1.40;;;21.50;99.90;;;21.39;64.31;97866.38;4954884;28;20724;-44
2022/07/11 08:04:06;;;;;;;1.20;1.05;;;21.50;99.90;;;21.51;60.83;97868.16;4957591;28;20513;-43
2022/07/11 08:06:34;;;;;;;1.45;1.10;;;21.60;99.90;;;21.76;58.25;97869.03;4938859;28;20121;-43
2022/07/11 08:09:00;;;;;;;1.77;1.02;;;21.80;99.90;;;21.89;56.04;97860.91;4955476;28;20082;-43
2022/07/11 08:11:26;;;;;;;0.90;0.90;;;22.00;98.90;;;21.98;53.64;97864.72;4953567;28;20023;-43
2022/07/11 08:13:52;;;;;;;1.42;1.00;;;22.10;97.90;;;22.01;54.15;97856.44;4952956;28;20034;-42
2022/07/11 08:16:19;;;;;;;1.88;1.10;;;22.10;97.70;;;21.93;56.49;97851.66;4945925;28;20058;-42
2022/07/11 08:18:45;;;;;;;1.52;0.98;;;22.20;98.50;;;21.94;54.79;97858.72;4953498;28;20030;-42
2022/07/11 08:21:12;;;;;;;2.25;1.02;;;22.20;97.70;;;21.96;51.96;97870.19;4952735;28;20042;-42
2022/07/11 08:23:38;;;;;;;3.45;1.10;;;22.20;96.40;;;21.87;51.26;97866.38;4952422;28;20066;-42
2022/07/11 08:26:04;;;;;;;1.23;0.65;;;22.10;96.40;;;21.71;50.71;97865.81;4948367;28;20117;-42
2022/07/11 08:28:30;;;;;;;1.00;0.70;;;22.10;95.00;;;21.66;50.86;97862.63;4958843;28;20027;-45
2022/07/11 08:30:56;;;;;;;1.02;0.80;;;21.90;95.00;;;21.32;53.06;97862.44;4949905;28;20075;-42
2022/07/11 08:33:22;;;;;;;1.05;0.85;;;21.70;95.70;;;21.28;52.85;97860.94;4952928;28;20035;-42
2022/07/11 08:35:48;;;;;;;0.75;0.70;;;21.60;96.00;;;21.22;53.78;97851.50;4957762;28;20042;-43
2022/07/11 08:38:14;;;;;;;0.98;0.88;;;21.40;96.10;;;21.13;55.52;97849.50;4954643;28;20027;-43
2022/07/11 08:40:43;;;;;;;1.50;0.90;;;21.20;96.80;;;21.09;55.42;97838.16;4956093;28;20042;-42
2022/07/11 08:43:16;;;;;;;0.90;0.75;;;21.20;97.20;;;21.29;53.34;97838.50;4950639;28;20114;-43
2022/07/11 08:45:42;;;;;;;1.67;0.80;;;21.40;96.80;;;21.53;52.47;97838.53;4952918;28;20031;-43
2022/07/11 08:48:09;;;;;;;1.17;0.95;;;21.50;95.90;;;21.64;52.54;97840.41;4952623;28;20046;-42
2022/07/11 08:50:35;;;;;;;1.35;0.90;;;21.70;95.60;;;21.49;52.63;97834.38;4955730;28;20035;-42
2022/07/11 08:53:03;;;;;;;0.70;0.70;;;21.70;95.20;;;21.56;52.98;97840.16;4947921;28;20053;-42
2022/07/11 08:55:29;;;;;;;1.02;0.98;;;21.60;95.80;;;21.52;52.03;97842.22;4957504;28;20031;-42
2022/07/11 08:57:55;;;;;;;1.38;0.90;;;21.80;95.20;;;21.61;52.87;97837.97;4957095;28;20086;-42
2022/07/11 09:00:21;;;;;;;0.73;0.73;;;21.80;95.40;;;21.67;52.27;97833.00;4955159;28;20332;-42
2022/07/11 09:02:49;;;;;;;1.77;0.90;;;21.90;95.20;;;22.01;53.34;97833.09;4948353;28;20034;-42
2022/07/11 09:05:15;;;;;;;2.05;0.98;;;22.20;95.70;;;22.38;51.80;97822.25;4954613;28;20042;-43
2022/07/11 09:07:48;;;;;;;1.13;0.98;;;22.60;95.10;;;22.51;51.01;97827.50;4958024;28;20027;-43
2022/07/11 09:10:15;;;;;;;1.95;0.73;;;22.80;94.30;;;22.74;50.36;97830.19;4959329;28;20124;-42
2022/07/11 09:13:06;;;;;;;1.08;0.80;;;22.90;94.00;;;22.86;50.35;97835.44;4957032;28;20035;-43
2022/07/11 09:15:40;;;;;;;0.98;0.80;;;23.00;94.00;;;22.93;51.56;97834.94;4955297;28;20323;-42
2022/07/11 09:18:40;;;;;;;0.70;0.70;;;23.10;94.40;;;22.81;50.39;97834.13;4951163;28;20038;-43
2022/07/11 09:26:52;;;;;;;0.98;0.85;;;22.90;94.40;;;22.71;50.25;97838.50;4958463;28;20096;-42
2022/07/11 09:29:24;;;;;;;1.05;0.70;;;22.80;93.70;;;22.61;50.81;97833.00;4953562;28;20037;-42
2022/07/11 09:31:50;;;;;;;1.60;0.80;;;22.70;93.80;;;22.60;50.51;97844.75;4954305;28;20042;-42
2022/07/11 09:34:19;;;;;;;1.00;0.82;;;22.70;93.80;;;22.40;50.89;97852.53;4953757;28;20031;-42
2022/07/11 09:36:47;;;;;;;0.80;0.80;;;22.50;93.50;;;22.35;52.77;97845.81;4950546;28;20146;-43
2022/07/11 09:39:22;;;;;;;1.13;0.90;;;22.40;94.30;;;22.40;52.46;97854.38;4944303;28;20100;-43
2022/07/11 09:41:51;;;;;;;1.23;1.08;;;22.40;94.50;;;22.46;51.40;97846.66;4957793;28;20085;-42
2022/07/11 09:44:31;;;;;;;0.90;0.90;;;22.60;94.10;;;22.74;48.80;97844.50;4957369;28;20041;-42
2022/07/11 09:46:57;;;;;;;1.30;0.98;;;22.90;93.40;;;22.59;46.32;97846.53;4955489;28;20042;-44
2022/07/11 09:49:43;;;;;;;0.75;0.70;;;23.00;90.60;;;22.74;45.27;97849.00;4958836;28;20027;-41
2022/07/11 09:52:15;;;;;;;0.80;0.80;;;22.90;89.60;;;22.85;47.63;97849.03;4955996;28;20267;-40
2022/07/11 09:55:02;;;;;;;1.08;0.60;;;23.00;91.10;;;22.98;47.99;97843.50;4959399;28;20038;-41
2022/07/11 09:57:34;;;;;;;1.27;0.85;;;23.10;91.40;;;23.04;48.76;97846.59;4936189;28;20066;-40
2022/07/11 10:00:01;;;;;;;1.88;0.70;;;23.20;91.90;;;22.94;47.85;97850.13;4956020;28;20443;-41
2022/07/11 10:02:27;;;;;;;1.73;0.80;;;23.20;91.30;;;22.93;47.15;97849.25;4955019;28;20044;-42
2022/07/11 10:04:53;;;;;;;1.77;0.90;;;23.10;91.30;;;23.13;49.01;97841.44;4949576;28;20031;-43
2022/07/11 10:07:19;;;;;;;13.35;1.20;;;23.30;91.90;;;23.40;47.90;97844.56;4954901;28;20093;-40
2022/07/11 10:09:45;;;;;;;1.25;0.60;;;23.50;91.40;;;23.57;44.01;97842.31;4953284;28;20045;-41
2022/07/11 10:12:11;;;;;;;1.38;0.70;;;23.90;87.80;;;23.81;44.02;97844.81;4958852;28;20165;-41
2022/07/11 10:14:37;;;;;;;0.73;0.73;;;23.90;87.10;;;23.76;44.59;97850.56;4958323;28;20118;-40
2022/07/11 10:17:15;;;;;;;1.92;0.75;;;24.10;86.90;;;23.55;42.85;97855.06;4951706;28;20046;-40
2022/07/11 10:20:09;;;;;;;0.77;0.77;;;24.20;82.80;;;23.78;43.59;97845.91;4954555;28;20046;-42
2022/07/11 10:22:43;;;;;;;1.35;1.02;;;24.10;84.90;;;23.61;44.09;97849.16;4955440;28;20035;-40
2022/07/11 10:25:26;;;;;;;1.02;0.82;;;24.20;84.40;;;23.82;44.48;97838.47;4956160;28;20117;-41
2022/07/11 10:28:13;;;;;;;0.93;0.70;;;24.40;85.50;;;24.20;43.85;97851.34;4941936;28;20027;-40